Time;durP1;ratioP1;P1;durP2;ratioP2;P2;SDS_P1;SDS_P2;PMS_P1;PMS_P2;Temp;Humidity;BMP_temperature;BMP_pressure;BME280_temperature;BME280_humidity;BME280_pressure;Samples;Min_cycle;Max_cycle;Signal;HPM_P1;HPM_P2
2024/02/06 00:01:28;;;;;;;1.98;0.80;;;23.20;44.70;;;;;;10459815;28;20480;-48
2024/02/06 00:06:31;;;;;;;1.10;0.75;;;23.20;44.70;;;;;;10452450;28;20068;-50
2024/02/06 00:11:33;;;;;;;1.45;1.00;;;23.10;45.00;;;;;;10460828;28;20051;-54
2024/02/06 00:16:42;;;;;;;1.17;0.65;;;23.10;44.90;;;;;;10451653;28;20122;-54
2024/02/06 00:21:44;;;;;;;2.03;0.70;;;23.10;44.80;;;;;;10454457;28;20603;-50
2024/02/06 00:26:46;;;;;;;1.52;0.80;;;23.10;44.90;;;;;;10453731;28;20047;-51
2024/02/06 00:31:49;;;;;;;3.03;1.00;;;23.40;44.30;;;;;;10457156;28;20132;-54
2024/02/06 00:36:52;;;;;;;2.33;0.88;;;23.30;44.30;;;;;;10468716;28;20123;-54
2024/02/06 00:41:53;;;;;;;1.92;0.90;;;23.20;44.50;;;;;;10463908;28;20051;-54
2024/02/06 00:46:55;;;;;;;2.33;1.00;;;23.20;44.50;;;;;;10466639;28;20520;-52
2024/02/06 00:51:58;;;;;;;1.38;0.80;;;23.20;44.50;;;;;;10461333;28;20151;-52
2024/02/06 00:56:59;;;;;;;1.55;0.82;;;23.10;44.50;;;;;;10459391;28;20045;-53
2024/02/06 01:02:01;;;;;;;1.77;0.90;;;23.30;44.30;;;;;;10455133;28;20147;-54
2024/02/06 01:07:04;;;;;;;1.80;0.75;;;23.20;44.40;;;;;;10454796;28;20135;-52
2024/02/06 01:12:07;;;;;;;2.00;0.95;;;23.20;44.20;;;;;;10460068;28;20144;-55
2024/02/06 01:17:08;;;;;;;0.98;0.70;;;23.20;44.40;;;;;;10459784;28;20127;-52
2024/02/06 01:22:11;;;;;;;1.85;0.80;;;23.40;44.00;;;;;;10462528;28;20131;-51
2024/02/06 01:27:13;;;;;;;1.92;1.00;;;23.10;44.60;;;;;;10460301;28;20132;-53
2024/02/06 01:32:14;;;;;;;1.90;1.10;;;23.10;44.50;;;;;;10453045;28;20414;-56
2024/02/06 01:37:17;;;;;;;1.60;0.80;;;23.20;44.30;;;;;;10460510;28;20083;-50
2024/02/06 01:42:19;;;;;;;1.77;1.10;;;23.40;44.00;;;;;;10455868;28;20115;-51
2024/02/06 01:47:20;;;;;;;1.02;0.80;;;23.30;43.90;;;;;;10458632;28;20135;-50
2024/02/06 01:52:23;;;;;;;2.15;0.95;;;23.30;44.20;;;;;;10463436;28;20048;-51
2024/02/06 01:57:25;;;;;;;1.42;0.88;;;23.10;44.40;;;;;;10458638;28;20144;-48
2024/02/06 02:02:30;;;;;;;1.05;0.70;;;23.30;44.20;;;;;;10462147;28;20137;-53
2024/02/06 02:07:33;;;;;;;1.25;0.80;;;23.40;43.90;;;;;;10448659;28;20128;-47
2024/02/06 02:12:35;;;;;;;1.48;0.80;;;23.40;44.10;;;;;;10461904;28;20136;-47
2024/02/06 02:17:37;;;;;;;1.02;0.80;;;23.20;44.40;;;;;;10460942;28;20051;-47
2024/02/06 02:22:40;;;;;;;0.90;0.80;;;23.20;44.30;;;;;;10453881;28;20147;-47
2024/02/06 02:27:41;;;;;;;1.48;0.70;;;23.30;44.10;;;;;;10461959;28;20041;-51
2024/02/06 02:32:43;;;;;;;2.05;1.00;;;23.30;44.10;;;;;;10459233;28;20099;-47
2024/02/06 02:37:46;;;;;;;0.95;0.80;;;23.30;44.00;;;;;;10457139;28;20152;-49
2024/02/06 02:42:54;;;;;;;1.50;0.90;;;23.30;44.10;;;;;;10463704;28;20266;-47
2024/02/06 02:47:56;;;;;;;2.67;0.90;;;23.40;43.70;;;;;;10447218;28;20064;-54
2024/02/06 02:52:59;;;;;;;1.73;1.00;;;23.30;44.00;;;;;;10461142;28;20578;-50
2024/02/06 02:58:01;;;;;;;2.17;1.00;;;23.30;44.10;;;;;;10457606;28;20155;-56
2024/02/06 03:03:03;;;;;;;1.63;0.90;;;23.30;43.80;;;;;;10459690;28;20076;-57
2024/02/06 03:08:06;;;;;;;1.80;0.88;;;23.30;44.00;;;;;;10461703;28;20136;-56
2024/02/06 03:13:08;;;;;;;1.27;1.00;;;23.30;44.00;;;;;;10468790;28;20117;-56
2024/02/06 03:18:12;;;;;;;1.80;1.00;;;23.20;44.00;;;;;;10456289;28;20072;-54
2024/02/06 03:23:15;;;;;;;1.58;0.77;;;23.30;44.00;;;;;;10448467;28;20140;-56
2024/02/06 03:28:17;;;;;;;3.85;1.23;;;23.30;43.90;;;;;;10450680;28;20132;-57
2024/02/06 03:33:18;;;;;;;1.90;0.90;;;23.30;43.70;;;;;;10457955;28;20644;-49
2024/02/06 03:38:21;;;;;;;1.63;0.90;;;23.40;43.50;;;;;;10453598;28;20040;-48
2024/02/06 03:43:25;;;;;;;2.25;0.80;;;23.40;43.70;;;;;;10458986;28;20128;-52
2024/02/06 03:48:27;;;;;;;2.03;0.90;;;23.30;43.50;;;;;;10459295;28;20041;-48
2024/02/06 03:53:30;;;;;;;2.47;1.25;;;23.20;44.00;;;;;;10462168;28;20415;-48
2024/02/06 03:58:31;;;;;;;1.90;0.98;;;23.30;43.60;;;;;;10463109;28;20143;-48
2024/02/06 04:03:35;;;;;;;1.38;0.90;;;23.20;43.90;;;;;;10459900;28;20135;-48
2024/02/06 04:08:38;;;;;;;1.70;1.00;;;23.30;43.80;;;;;;10469789;28;20073;-57
2024/02/06 04:13:40;;;;;;;2.47;1.08;;;23.50;43.90;;;;;;10467050;28;20123;-52
2024/02/06 04:18:42;;;;;;;2.35;1.00;;;23.60;43.80;;;;;;10462428;28;20455;-47
2024/02/06 04:23:45;;;;;;;2.53;0.88;;;23.70;43.80;;;;;;10461376;28;20077;-54
2024/02/06 04:28:47;;;;;;;2.20;0.90;;;23.80;43.80;;;;;;10468818;28;20056;-50
2024/02/06 04:33:49;;;;;;;1.55;0.90;;;23.90;43.70;;;;;;10464461;28;20561;-50
2024/02/06 04:38:51;;;;;;;1.77;0.90;;;24.00;43.50;;;;;;10454031;28;20049;-49
2024/02/06 04:43:53;;;;;;;2.53;1.10;;;24.00;43.70;;;;;;10461437;28;20140;-48
2024/02/06 04:48:55;;;;;;;1.98;0.80;;;23.90;43.60;;;;;;10469002;28;20143;-48
2024/02/06 04:53:58;;;;;;;2.03;0.80;;;24.00;43.70;;;;;;10462406;28;20140;-49
2024/02/06 04:59:00;;;;;;;2.03;0.90;;;24.00;43.60;;;;;;10457816;28;20136;-49
2024/02/06 05:04:02;;;;;;;0.82;0.80;;;24.10;43.50;;;;;;10465491;28;20049;-51
2024/02/06 05:09:05;;;;;;;2.83;0.90;;;24.10;43.60;;;;;;10473220;28;20049;-51
2024/02/06 05:14:08;;;;;;;1.02;0.90;;;24.00;43.60;;;;;;10453842;28;20147;-50
2024/02/06 05:19:13;;;;;;;1.52;0.95;;;24.00;43.50;;;;;;10458163;28;20045;-54
2024/02/06 05:24:16;;;;;;;2.30;0.85;;;24.00;43.70;;;;;;10461935;28;20053;-53
2024/02/06 05:29:18;;;;;;;1.20;0.70;;;24.00;43.70;;;;;;10457659;28;20055;-52
2024/02/06 05:34:19;;;;;;;1.70;1.00;;;24.00;43.80;;;;;;10459085;28;20136;-56
2024/02/06 05:39:23;;;;;;;1.88;0.95;;;24.00;43.80;;;;;;10455722;28;20128;-57
2024/02/06 05:44:24;;;;;;;1.35;0.90;;;24.00;43.80;;;;;;10468426;28;20044;-54
2024/02/06 05:49:26;;;;;;;1.50;1.05;;;24.00;43.80;;;;;;10455681;28;20036;-54
2024/02/06 05:54:29;;;;;;;1.83;1.20;;;23.90;43.40;;;;;;10457123;28;20558;-55
2024/02/06 05:59:32;;;;;;;2.33;1.00;;;23.70;43.50;;;;;;10456430;28;20048;-58
2024/02/06 06:04:33;;;;;;;2.50;1.00;;;23.70;44.20;;;;;;10461437;28;20094;-56
2024/02/06 06:09:36;;;;;;;3.10;1.02;;;24.10;43.60;;;;;;10457046;28;20127;-56
2024/02/06 06:14:38;;;;;;;2.30;1.05;;;24.20;44.00;;;;;;10456700;28;20051;-56
2024/02/06 06:19:40;;;;;;;3.53;1.05;;;24.30;43.40;;;;;;10466477;28;20055;-55
2024/02/06 06:24:45;;;;;;;5.13;1.23;;;24.20;43.70;;;;;;10459689;28;20505;-56
2024/02/06 06:29:46;;;;;;;7.18;1.30;;;24.10;44.10;;;;;;10459280;28;20184;-59
2024/02/06 06:34:48;;;;;;;8.93;1.67;;;24.20;44.00;;;;;;10457586;28;20148;-56
2024/02/06 06:39:51;;;;;;;31.70;4.20;;;24.20;44.40;;;;;;10463498;28;20144;-51
2024/02/06 06:44:52;;;;;;;27.80;4.45;;;24.30;47.50;;;;;;10457489;28;20076;-54
2024/02/06 06:49:54;;;;;;;23.73;3.80;;;24.10;48.20;;;;;;10450965;28;20136;-52
2024/02/06 06:54:57;;;;;;;13.55;3.60;;;24.00;47.80;;;;;;10454753;28;20136;-52
2024/02/06 06:59:58;;;;;;;20.25;4.15;;;23.90;48.00;;;;;;10463181;28;20160;-53
2024/02/06 07:05:04;;;;;;;16.33;3.95;;;23.90;47.40;;;;;;10455700;28;20124;-51
2024/02/06 07:10:08;;;;;;;15.27;3.58;;;23.70;47.90;;;;;;10449840;28;20044;-54
2024/02/06 07:15:10;;;;;;;14.10;3.10;;;23.70;47.90;;;;;;10449430;28;20152;-51
2024/02/06 07:20:12;;;;;;;15.27;3.88;;;23.60;47.90;;;;;;10458298;28;20098;-53
2024/02/06 07:25:15;;;;;;;18.90;4.55;;;23.50;47.90;;;;;;10455205;28;20068;-56
2024/02/06 07:30:17;;;;;;;15.75;3.60;;;23.40;48.10;;;;;;10454170;28;20131;-56
2024/02/06 07:35:18;;;;;;;18.33;4.95;;;23.40;47.80;;;;;;10466428;28;20136;-55
2024/02/06 07:40:21;;;;;;;35.80;8.20;;;23.50;47.70;;;;;;10462367;28;20132;-55
2024/02/06 07:45:23;;;;;;;37.92;8.75;;;23.40;47.60;;;;;;10461331;28;20041;-53
2024/02/06 07:50:25;;;;;;;32.88;8.73;;;23.20;48.10;;;;;;10458789;28;20575;-52
2024/02/06 07:55:28;;;;;;;34.67;8.13;;;23.10;48.00;;;;;;10464351;28;20570;-51
2024/02/06 08:00:29;;;;;;;30.73;8.27;;;23.10;48.10;;;;;;10453236;28;20128;-57
2024/02/06 08:05:32;;;;;;;26.20;8.23;;;23.10;47.60;;;;;;10453733;28;20044;-55
2024/02/06 08:10:35;;;;;;;27.80;8.15;;;23.10;47.50;;;;;;10461385;28;20182;-55
2024/02/06 08:15:36;;;;;;;24.45;7.53;;;23.10;47.40;;;;;;10463224;28;20057;-53
2024/02/06 08:20:38;;;;;;;26.77;7.07;;;23.00;47.70;;;;;;10466634;28;20128;-55
2024/02/06 08:25:41;;;;;;;25.42;7.38;;;23.10;47.60;;;;;;10455241;28;20494;-50
2024/02/06 08:30:47;;;;;;;21.23;6.65;;;22.90;47.80;;;;;;10461497;28;20959;-52
2024/02/06 08:35:52;;;;;;;26.65;6.22;;;23.00;48.00;;;;;;10456826;28;20071;-55
2024/02/06 08:40:55;;;;;;;29.85;6.70;;;23.10;47.90;;;;;;10461417;28;20045;-55
2024/02/06 08:45:57;;;;;;;22.50;5.95;;;23.10;47.90;;;;;;10460277;28;20037;-52
2024/02/06 08:50:59;;;;;;;17.40;5.47;;;23.20;47.90;;;;;;10461343;28;20079;-50
2024/02/06 08:56:03;;;;;;;18.77;5.80;;;23.20;48.00;;;;;;10453247;28;20661;-54
2024/02/06 09:01:05;;;;;;;18.17;5.40;;;23.30;47.70;;;;;;10463545;28;20162;-52
2024/02/06 09:06:07;;;;;;;18.52;5.45;;;23.30;47.70;;;;;;10459690;28;20056;-52
2024/02/06 09:11:10;;;;;;;16.70;4.75;;;23.30;47.80;;;;;;10455122;28;20147;-53
2024/02/06 09:16:12;;;;;;;18.70;4.80;;;23.30;47.80;;;;;;10459077;28;20057;-53
2024/02/06 09:21:15;;;;;;;17.02;4.57;;;23.20;48.00;;;;;;10458842;28;20516;-53
2024/02/06 09:26:18;;;;;;;10.50;3.88;;;23.20;48.00;;;;;;10456577;28;20495;-53
2024/02/06 09:31:20;;;;;;;13.85;4.63;;;23.20;48.10;;;;;;10458123;28;20048;-54
2024/02/06 09:36:22;;;;;;;14.88;4.28;;;23.20;47.70;;;;;;10460655;28;20045;-54
2024/02/06 09:41:25;;;;;;;13.68;4.15;;;23.40;47.40;;;;;;10454962;28;20556;-54
2024/02/06 09:46:27;;;;;;;16.30;3.90;;;23.40;48.00;;;;;;10457983;28;20568;-53
2024/02/06 09:51:28;;;;;;;13.63;3.70;;;23.30;48.50;;;;;;10465424;28;20130;-55
2024/02/06 09:56:31;;;;;;;11.50;3.88;;;23.30;48.00;;;;;;10459985;28;20123;-52
2024/02/06 10:01:33;;;;;;;10.13;3.70;;;23.20;48.20;;;;;;10455251;28;20139;-53
2024/02/06 10:06:35;;;;;;;13.90;3.80;;;23.20;48.40;;;;;;10461344;28;20040;-56
2024/02/06 10:11:38;;;;;;;10.63;3.40;;;23.10;48.50;;;;;;10445244;28;20843;-52
2024/02/06 10:16:40;;;;;;;9.30;2.88;;;23.10;48.60;;;;;;10452513;28;20135;-57
2024/02/06 10:21:42;;;;;;;9.65;3.00;;;23.10;48.40;;;;;;10455605;28;20482;-53
2024/02/06 10:26:45;;;;;;;9.32;3.45;;;23.00;48.40;;;;;;10452113;28;20041;-51
2024/02/06 10:31:47;;;;;;;11.27;3.10;;;23.00;48.70;;;;;;10456659;28;20052;-54
2024/02/06 10:36:55;;;;;;;9.55;3.03;;;22.70;49.70;;;;;;10456312;28;20139;-55
2024/02/06 10:42:02;;;;;;;9.65;2.72;;;22.60;50.00;;;;;;10455202;28;20131;-53
2024/02/06 10:47:04;;;;;;;8.07;2.63;;;22.70;50.00;;;;;;10451757;28;20136;-54
2024/02/06 10:52:07;;;;;;;7.00;2.80;;;22.70;49.90;;;;;;10460159;28;20049;-52
2024/02/06 10:57:10;;;;;;;7.95;2.50;;;22.80;49.90;;;;;;10456096;28;20040;-51
2024/02/06 11:02:18;;;;;;;5.85;2.55;;;22.70;50.30;;;;;;10453117;28;20127;-52
2024/02/06 11:07:19;;;;;;;7.53;2.28;;;22.80;50.90;;;;;;10457817;28;20481;-51
2024/02/06 11:12:22;;;;;;;8.15;2.28;;;22.80;50.60;;;;;;10461261;28;20049;-52
2024/02/06 11:17:24;;;;;;;9.52;2.40;;;22.80;50.60;;;;;;10458880;28;20472;-51
2024/02/06 11:22:27;;;;;;;10.60;1.95;;;22.70;50.40;;;;;;10457380;28;20156;-53
2024/02/06 11:27:30;;;;;;;5.65;1.75;;;22.80;50.50;;;;;;10448179;28;20140;-52
2024/02/06 11:32:31;;;;;;;6.50;2.05;;;22.90;50.30;;;;;;10456041;28;20135;-53
2024/02/06 11:37:33;;;;;;;4.70;2.00;;;22.90;50.20;;;;;;10456288;28;20047;-53
2024/02/06 11:42:36;;;;;;;5.70;2.38;;;22.90;50.30;;;;;;10453837;28;20512;-54
2024/02/06 11:47:38;;;;;;;3.95;1.73;;;23.00;50.00;;;;;;10456547;28;20052;-57
2024/02/06 11:52:40;;;;;;;6.82;1.70;;;22.90;50.00;;;;;;10466340;28;20144;-52
2024/02/06 11:57:43;;;;;;;5.65;1.90;;;23.10;49.90;;;;;;10457702;28;20440;-53
2024/02/06 12:02:50;;;;;;;4.25;1.80;;;23.10;49.80;;;;;;10447282;28;20152;-55
2024/02/06 12:07:53;;;;;;;9.60;1.70;;;23.10;49.90;;;;;;10451302;28;20499;-56
2024/02/06 12:13:00;;;;;;;3.30;1.33;;;23.20;49.60;;;;;;10455326;28;20056;-55
2024/02/06 12:18:03;;;;;;;5.13;1.50;;;23.30;49.10;;;;;;10451328;28;20045;-54
2024/02/06 12:23:06;;;;;;;4.22;1.40;;;23.60;48.70;;;;;;10464231;28;20087;-55
2024/02/06 12:28:13;;;;;;;2.33;1.30;;;24.00;48.50;;;;;;10464392;28;20044;-52
2024/02/06 12:33:14;;;;;;;4.50;1.60;;;24.10;47.20;;;;;;10467655;28;20517;-51
2024/02/06 12:38:19;;;;;;;4.90;1.50;;;24.20;46.90;;;;;;10457960;28;20121;-55
2024/02/06 12:43:22;;;;;;;5.55;1.42;;;24.30;46.60;;;;;;10454792;28;20131;-53
2024/02/06 12:48:23;;;;;;;6.32;1.20;;;24.30;46.50;;;;;;10465694;28;20151;-50
2024/02/06 12:53:25;;;;;;;5.40;1.70;;;24.10;47.20;;;;;;10460547;28;20045;-53
2024/02/06 12:58:30;;;;;;;8.77;1.50;;;23.80;48.40;;;;;;10454892;28;20103;-53
2024/02/06 13:03:37;;;;;;;6.35;1.80;;;23.50;49.00;;;;;;10459124;28;20049;-54
2024/02/06 13:08:46;;;;;;;9.98;2.20;;;23.30;50.10;;;;;;10465638;28;20140;-54
2024/02/06 13:13:54;;;;;;;4.18;2.00;;;23.20;51.20;;;;;;10464460;28;20060;-52
2024/02/06 13:18:58;;;;;;;5.88;2.03;;;23.10;51.70;;;;;;10456468;28;20048;-53
2024/02/06 13:24:06;;;;;;;6.30;1.98;;;23.10;52.10;;;;;;10457961;28;20128;-57
2024/02/06 13:29:09;;;;;;;5.28;2.10;;;23.10;52.50;;;;;;10459093;28;20132;-53
2024/02/06 13:34:10;;;;;;;4.45;2.05;;;23.10;52.50;;;;;;10453785;28;20052;-57
2024/02/06 13:39:12;;;;;;;4.15;1.92;;;23.10;52.40;;;;;;10458300;28;20135;-53
2024/02/06 13:44:15;;;;;;;5.70;1.83;;;23.10;52.40;;;;;;10468338;28;20079;-55
2024/02/06 13:49:17;;;;;;;4.57;1.70;;;23.10;52.40;;;;;;10465248;28;20144;-54
2024/02/06 13:54:18;;;;;;;4.82;1.67;;;23.10;52.20;;;;;;10462351;28;20139;-55
2024/02/06 13:59:21;;;;;;;6.05;1.65;;;23.10;52.40;;;;;;10450488;28;20131;-55
2024/02/06 14:04:23;;;;;;;5.43;2.00;;;23.50;51.40;;;;;;10453701;28;20167;-57
2024/02/06 14:09:24;;;;;;;3.45;1.60;;;23.50;51.00;;;;;;10455643;28;20076;-56
2024/02/06 14:14:27;;;;;;;4.00;1.70;;;24.10;49.80;;;;;;10459412;28;20466;-53
2024/02/06 14:19:29;;;;;;;4.35;1.30;;;23.70;51.40;;;;;;10454859;28;20048;-54
2024/02/06 14:24:30;;;;;;;3.55;1.38;;;23.20;53.50;;;;;;10464015;28;20132;-55
2024/02/06 14:29:33;;;;;;;4.03;1.40;;;23.10;54.00;;;;;;10459975;28;20135;-57
2024/02/06 14:34:35;;;;;;;3.67;1.55;;;23.10;53.70;;;;;;10452626;28;20083;-58
2024/02/06 14:39:37;;;;;;;3.20;1.60;;;23.00;54.50;;;;;;10458015;28;20124;-56
2024/02/06 14:44:41;;;;;;;2.13;1.30;;;23.00;54.70;;;;;;10453298;28;20532;-55
2024/02/06 14:49:42;;;;;;;3.50;1.50;;;23.00;54.80;;;;;;10459077;28;20036;-57
2024/02/06 14:54:44;;;;;;;4.40;1.60;;;23.00;54.60;;;;;;10457966;28;20471;-57
2024/02/06 14:59:47;;;;;;;3.35;1.30;;;23.00;55.10;;;;;;10461213;28;20122;-55
2024/02/06 15:04:49;;;;;;;2.78;1.27;;;23.10;54.80;;;;;;10459790;28;20140;-58
2024/02/06 15:09:55;;;;;;;5.05;1.50;;;23.10;54.30;;;;;;10457714;28;20045;-57
2024/02/06 15:14:58;;;;;;;4.18;1.30;;;23.00;54.50;;;;;;10447440;28;20052;-55
2024/02/06 15:19:59;;;;;;;4.00;1.23;;;23.10;54.90;;;;;;10459216;28;20535;-58
2024/02/06 15:25:01;;;;;;;8.35;1.25;;;23.10;55.60;;;;;;10455361;28;20156;-54
2024/02/06 15:30:05;;;;;;;2.70;1.10;;;23.20;56.30;;;;;;10460494;28;20131;-55
2024/02/06 15:35:07;;;;;;;3.53;0.82;;;23.10;55.80;;;;;;10467607;28;20136;-54
2024/02/06 15:40:09;;;;;;;2.20;0.98;;;23.20;55.70;;;;;;10460547;28;20045;-53
2024/02/06 15:45:12;;;;;;;3.67;1.15;;;23.20;55.60;;;;;;10456803;28;20139;-52
2024/02/06 15:50:14;;;;;;;4.47;1.45;;;23.20;55.10;;;;;;10459099;28;20135;-54
2024/02/06 15:55:16;;;;;;;4.40;1.42;;;23.20;54.40;;;;;;10455722;28;20123;-55
2024/02/06 16:00:20;;;;;;;4.03;1.30;;;23.20;53.70;;;;;;10464514;28;20033;-56
2024/02/06 16:05:21;;;;;;;7.10;1.30;;;23.10;54.20;;;;;;10468782;28;20135;-55
2024/02/06 16:10:23;;;;;;;2.58;1.40;;;23.20;54.30;;;;;;10463198;28;20481;-54
2024/02/06 16:15:26;;;;;;;3.80;1.38;;;23.20;54.00;;;;;;10468600;28;20131;-56
2024/02/06 16:20:27;;;;;;;3.42;1.30;;;23.20;53.40;;;;;;10463198;28;20099;-59
2024/02/06 16:25:30;;;;;;;5.95;1.20;;;23.20;52.90;;;;;;10462440;28;20049;-51
2024/02/06 16:30:33;;;;;;;4.45;1.20;;;23.10;52.60;;;;;;10456542;28;20076;-53
2024/02/06 16:35:35;;;;;;;4.15;1.33;;;23.20;52.30;;;;;;10459801;28;20135;-55
2024/02/06 16:40:38;;;;;;;1.98;1.17;;;23.20;51.90;;;;;;10462931;28;20045;-54
2024/02/06 16:45:45;;;;;;;2.88;1.10;;;23.20;51.50;;;;;;10464456;28;20063;-49
2024/02/06 16:50:46;;;;;;;5.47;0.98;;;23.20;51.10;;;;;;10468473;28;20411;-53
2024/02/06 16:55:48;;;;;;;4.28;1.00;;;23.20;50.90;;;;;;10470817;28;20136;-51
2024/02/06 17:00:51;;;;;;;2.80;0.80;;;23.10;51.50;;;;;;10469159;28;20073;-54
2024/02/06 17:05:53;;;;;;;1.35;0.80;;;23.10;51.60;;;;;;10458735;28;20131;-51
2024/02/06 17:10:54;;;;;;;4.68;0.80;;;23.10;51.70;;;;;;10460187;28;20044;-53
2024/02/06 17:15:57;;;;;;;3.25;0.70;;;23.20;51.70;;;;;;10462768;28;20131;-54
2024/02/06 17:20:59;;;;;;;1.75;0.68;;;23.20;51.70;;;;;;10467601;28;20095;-55
2024/02/06 17:26:01;;;;;;;2.58;0.82;;;23.20;51.30;;;;;;10465639;28;20128;-55
2024/02/06 17:31:04;;;;;;;2.17;0.70;;;23.20;51.40;;;;;;10460711;28;20045;-53
2024/02/06 17:36:06;;;;;;;5.35;0.88;;;23.20;51.30;;;;;;10455276;28;20124;-53
2024/02/06 17:41:09;;;;;;;7.82;1.10;;;23.20;51.50;;;;;;10464878;28;20135;-51
2024/02/06 17:46:12;;;;;;;6.35;0.90;;;23.20;51.50;;;;;;10455982;28;20064;-49
2024/02/06 17:51:14;;;;;;;4.78;1.02;;;23.20;51.50;;;;;;10456156;28;20052;-53
2024/02/06 17:56:15;;;;;;;5.25;1.10;;;23.20;51.70;;;;;;10459077;28;20947;-54
2024/02/06 18:01:18;;;;;;;4.47;1.00;;;23.20;51.70;;;;;;10462551;28;20123;-54
2024/02/06 18:06:20;;;;;;;5.43;1.00;;;23.30;51.80;;;;;;10458339;28;20479;-54
2024/02/06 18:11:22;;;;;;;6.45;0.90;;;23.30;51.70;;;;;;10460283;28;20136;-56
2024/02/06 18:16:25;;;;;;;5.18;0.93;;;23.70;51.10;;;;;;10455796;28;20465;-52
2024/02/06 18:21:26;;;;;;;11.80;1.10;;;23.90;50.40;;;;;;10451749;28;20057;-52
2024/02/06 18:26:28;;;;;;;4.10;1.10;;;24.00;50.10;;;;;;10455317;28;20071;-54
2024/02/06 18:31:31;;;;;;;5.88;1.10;;;24.10;49.80;;;;;;10453408;28;20405;-53
2024/02/06 18:36:33;;;;;;;3.90;1.00;;;24.30;49.60;;;;;;10463482;28;20041;-53
2024/02/06 18:41:34;;;;;;;10.07;1.30;;;24.20;49.90;;;;;;10463593;28;20541;-52
2024/02/06 18:46:37;;;;;;;4.40;1.00;;;24.10;50.30;;;;;;10459016;28;20048;-52
2024/02/06 18:51:39;;;;;;;6.00;1.20;;;24.30;49.50;;;;;;10445404;28;20049;-51
2024/02/06 18:56:40;;;;;;;5.72;1.30;;;24.20;49.20;;;;;;10451721;28;20040;-53
2024/02/06 19:01:43;;;;;;;7.85;1.10;;;24.20;48.70;;;;;;10451861;28;20132;-53
2024/02/06 19:06:45;;;;;;;6.28;1.00;;;24.20;49.00;;;;;;10454368;28;20460;-54
2024/02/06 19:11:46;;;;;;;4.63;1.10;;;24.10;49.20;;;;;;10457051;28;20155;-50
2024/02/06 19:16:49;;;;;;;6.03;1.20;;;23.90;49.40;;;;;;10462585;28;20079;-52
2024/02/06 19:21:51;;;;;;;2.60;1.00;;;23.90;49.50;;;;;;10467263;28;20055;-54
2024/02/06 19:26:53;;;;;;;6.20;1.20;;;23.70;49.50;;;;;;10459762;28;20887;-49
2024/02/06 19:31:56;;;;;;;7.25;1.73;;;23.60;49.70;;;;;;10454824;28;20141;-52
2024/02/06 19:36:58;;;;;;;4.95;1.40;;;23.70;49.30;;;;;;10453354;28;20236;-49
2024/02/06 19:42:00;;;;;;;6.28;1.05;;;23.60;49.40;;;;;;10450570;28;20044;-49
2024/02/06 19:47:04;;;;;;;6.82;1.08;;;23.70;49.50;;;;;;10453964;28;20048;-52
2024/02/06 19:52:06;;;;;;;6.32;1.63;;;23.80;50.00;;;;;;10456138;28;20045;-46
2024/02/06 19:57:08;;;;;;;5.20;1.00;;;23.80;49.90;;;;;;10460746;28;20581;-46
2024/02/06 20:02:11;;;;;;;9.95;1.23;;;23.80;49.80;;;;;;10464426;28;20045;-46
2024/02/06 20:07:12;;;;;;;4.32;1.20;;;23.70;48.70;;;;;;10447218;28;20375;-45
2024/02/06 20:12:14;;;;;;;5.40;1.10;;;23.50;45.20;;;;;;10450185;28;20055;-46
2024/02/06 20:17:18;;;;;;;1.92;0.93;;;23.40;44.30;;;;;;10449796;28;20115;-52
2024/02/06 20:22:19;;;;;;;7.55;1.05;;;23.20;45.30;;;;;;10454202;28;20053;-50
2024/02/06 20:27:21;;;;;;;14.35;1.38;;;23.60;45.80;;;;;;10460234;22;20041;-66
2024/02/06 20:32:27;;;;;;;7.47;1.30;;;23.60;46.60;;;;;;10441642;23;20069;-66
2024/02/06 20:37:29;;;;;;;5.20;1.10;;;23.80;46.50;;;;;;10402734;28;20049;-66
2024/02/06 20:42:30;;;;;;;3.20;0.85;;;23.70;46.60;;;;;;10398402;28;20057;-65
2024/02/06 20:47:34;;;;;;;3.65;0.95;;;23.80;46.90;;;;;;10436300;28;20482;-66
2024/02/06 20:52:36;;;;;;;3.17;0.80;;;24.00;46.80;;;;;;10406567;28;20100;-65
2024/02/06 20:57:38;;;;;;;4.88;0.90;;;24.00;46.90;;;;;;10397872;28;20049;-65
2024/02/06 21:02:41;;;;;;;3.88;0.80;;;24.00;47.10;;;;;;10399241;28;20500;-58
2024/02/06 21:07:45;;;;;;;2.90;0.70;;;24.00;46.80;;;;;;10408797;28;20092;-59
2024/02/06 21:12:47;;;;;;;2.17;0.80;;;24.00;47.20;;;;;;10411355;28;20049;-57
2024/02/06 21:17:50;;;;;;;3.75;0.90;;;24.20;46.80;;;;;;10408955;28;20089;-57
2024/02/06 21:22:52;;;;;;;4.18;0.63;;;24.00;46.50;;;;;;10397101;28;20084;-57
2024/02/06 21:27:53;;;;;;;5.97;1.25;;;24.00;46.70;;;;;;10413608;28;20432;-56
2024/02/06 21:32:57;;;;;;;2.88;0.70;;;23.80;46.90;;;;;;10409264;28;20049;-60
2024/02/06 21:37:59;;;;;;;1.63;0.70;;;23.60;46.90;;;;;;10410821;28;20055;-57
2024/02/06 21:43:01;;;;;;;5.07;0.63;;;23.60;47.00;;;;;;10410049;28;20081;-57
2024/02/06 21:48:05;;;;;;;4.00;0.70;;;23.30;47.30;;;;;;10412677;28;20049;-61
2024/02/06 21:53:07;;;;;;;2.33;0.90;;;23.30;47.10;;;;;;10414705;28;20049;-60
2024/02/06 21:58:09;;;;;;;2.45;0.82;;;23.30;47.20;;;;;;10397754;28;20049;-63
2024/02/06 22:03:12;;;;;;;1.60;0.50;;;23.20;47.30;;;;;;10408207;28;20076;-59
2024/02/06 22:08:14;;;;;;;2.10;0.80;;;23.10;47.40;;;;;;10406864;28;20044;-61
2024/02/06 22:13:15;;;;;;;3.92;0.50;;;23.00;47.40;;;;;;10403988;28;20455;-59
2024/02/06 22:18:19;;;;;;;1.90;0.60;;;22.90;47.50;;;;;;10408911;28;20120;-60
2024/02/06 22:23:20;;;;;;;2.28;0.75;;;22.90;47.50;;;;;;10413654;28;20077;-59
2024/02/06 22:28:22;;;;;;;4.00;0.70;;;22.80;47.80;;;;;;10413301;28;20073;-58
2024/02/06 22:33:25;;;;;;;2.20;0.77;;;22.70;47.90;;;;;;10403668;28;20119;-59
2024/02/06 22:38:27;;;;;;;2.15;0.82;;;22.80;47.90;;;;;;10403554;28;20045;-60
2024/02/06 22:43:33;;;;;;;1.80;0.70;;;22.80;47.70;;;;;;10416330;28;20052;-59
2024/02/06 22:48:36;;;;;;;1.27;0.60;;;22.70;47.90;;;;;;10407283;28;20069;-61
2024/02/06 22:53:38;;;;;;;0.95;0.40;;;22.70;47.90;;;;;;10404863;28;20076;-59
2024/02/06 22:58:40;;;;;;;1.98;0.60;;;22.60;47.80;;;;;;10405546;28;20037;-59
2024/02/06 23:03:44;;;;;;;1.23;0.50;;;22.70;47.90;;;;;;10407622;28;20091;-59
2024/02/06 23:08:46;;;;;;;2.05;0.75;;;22.70;47.80;;;;;;10408097;28;20554;-59
2024/02/06 23:13:48;;;;;;;0.82;0.47;;;22.70;47.80;;;;;;10404670;28;20054;-59
2024/02/06 23:18:52;;;;;;;0.73;0.50;;;22.80;47.60;;;;;;10401100;28;20049;-60
2024/02/06 23:23:54;;;;;;;1.20;0.70;;;22.70;47.60;;;;;;10413251;28;20652;-59
2024/02/06 23:28:55;;;;;;;1.88;0.50;;;22.60;47.80;;;;;;10404059;28;20132;-60
2024/02/06 23:34:00;;;;;;;1.88;0.60;;;22.60;47.80;;;;;;10412118;28;20050;-59
2024/02/06 23:39:02;;;;;;;1.83;0.60;;;22.60;47.90;;;;;;10422512;28;20496;-56
2024/02/06 23:44:04;;;;;;;1.55;0.40;;;22.40;48.00;;;;;;10421449;28;20053;-57
2024/02/06 23:49:08;;;;;;;1.52;0.50;;;22.50;47.80;;;;;;10414072;28;20055;-59
2024/02/06 23:54:09;;;;;;;1.00;0.45;;;22.50;47.80;;;;;;10400685;28;20053;-59
2024/02/06 23:59:11;;;;;;;1.02;0.60;;;22.50;47.70;;;;;;10417670;28;20103;-57
